Time;durP1;ratioP1;P1;durP2;ratioP2;P2;SDS_P1;SDS_P2;PMS_P1;PMS_P2;Temp;Humidity;BMP_temperature;BMP_pressure;BME280_temperature;BME280_humidity;BME280_pressure;Samples;Min_cycle;Max_cycle;Signal;HPM_P1;HPM_P2
2021/08/27 00:03:08;;;;;;;3.87;1.55;;;;;;;13.93;82.36;99790.41;21590951;80;101558;-84
2021/08/27 00:33:09;;;;;;;;;;;;;;;13.85;82.88;99787.56;21585129;80;99559;-85
2021/08/27 01:03:12;;;;;;;3.98;1.42;;;;;;;13.84;84.15;99802.59;21597308;80;85347;-85
2021/08/27 01:33:16;;;;;;;3.27;1.60;;;;;;;13.83;83.67;99818.39;21612302;80;99465;-84
2021/08/27 02:03:18;;;;;;;3.83;1.87;;;;;;;13.82;84.36;99836.78;21597761;80;99418;-84
2021/08/27 02:33:20;;;;;;;4.60;2.37;;;;;;;13.71;85.57;99832.77;21606706;80;99315;-84
2021/08/27 03:03:24;;;;;;;5.92;2.83;;;;;;;13.65;86.67;99846.05;21506321;80;100790;-84
2021/08/27 03:33:27;;;;;;;6.80;2.47;;;;;;;13.52;87.11;99834.73;21486325;80;99696;-84
2021/08/27 04:03:28;;;;;;;4.67;2.80;;;;;;;13.25;87.95;99844.86;21445994;80;99099;-83
2021/08/27 04:33:28;;;;;;;7.77;2.90;;;;;;;13.00;88.62;99836.60;21411809;81;99329;-84
2021/08/27 05:03:29;;;;;;;7.33;3.83;;;;;;;12.99;90.07;99847.47;21395906;81;99091;-85
2021/08/27 05:33:30;;;;;;;8.07;5.30;;;;;;;13.09;90.12;99882.52;21425067;81;99090;-84
2021/08/27 06:03:30;;;;;;;;;;;;;;;13.41;90.36;99898.23;21580168;80;99355;-85
2021/08/27 06:33:32;;;;;;;10.30;4.33;;;;;;;13.95;90.13;99913.28;21612654;80;85494;-85
2021/08/27 07:03:33;;;;;;;8.83;4.33;;;;;;;14.52;87.75;99931.43;21597758;80;99257;-84
2021/08/27 07:33:33;;;;;;;7.42;4.35;;;;;;;14.46;88.13;99951.09;21630456;80;99362;-82
2021/08/27 08:03:34;;;;;;;7.47;3.20;;;;;;;14.84;88.35;99960.30;21619568;80;99614;-83
2021/08/27 08:33:37;;;;;;;5.10;2.67;;;;;;;15.80;85.24;99973.66;21626945;80;202924;-83
2021/08/27 09:03:38;;;;;;;5.03;2.02;;;;;;;16.06;84.51;99996.39;21600185;80;113093;-84
2021/08/27 09:33:39;;;;;;;1.75;0.95;;;;;;;17.56;79.47;100007.75;21569846;80;99236;-81
2021/08/27 10:03:40;;;;;;;1.45;0.95;;;;;;;17.95;75.76;100014.56;21418590;81;99153;-81
2021/08/27 10:33:47;;;;;;;2.40;1.30;;;;;;;17.57;74.73;100039.16;21379534;80;99244;-84
2021/08/27 11:04:07;;;;;;;1.17;1.00;;;;;;;19.36;71.57;100026.74;21411020;81;99909;-85
2021/08/27 11:34:08;;;;;;;3.17;0.97;;;;;;;20.76;64.12;100030.38;21432255;81;99288;-83
2021/08/27 12:04:28;;;;;;;2.22;1.07;;;;;;;21.35;64.20;100028.13;21520674;80;106499;-93
2021/08/27 12:34:29;;;;;;;1.30;1.07;;;;;;;21.95;60.88;100020.11;21623628;80;99414;-86
2021/08/27 13:04:45;;;;;;;1.75;1.35;;;;;;;20.98;61.17;100031.95;21457934;80;176801;-85
2021/08/27 13:34:46;;;;;;;3.07;1.87;;;;;;;20.20;64.11;100047.73;21379089;81;99398;-85
2021/08/27 14:04:50;;;;;;;5.55;2.98;;;;;;;19.89;65.54;100064.30;21558156;80;99882;-83
2021/08/27 14:34:49;;;;;;;5.37;2.67;;;;;;;18.75;71.30;100056.20;21612442;80;99514;-85
2021/08/27 15:04:50;;;;;;;4.33;2.70;;;;;;;18.93;72.12;100094.75;21442430;80;99223;-83
2021/08/27 15:34:51;;;;;;;9.77;3.80;;;;;;;18.57;69.28;100039.19;21368202;81;126042;-84
2021/08/27 16:04:52;;;;;;;4.65;2.75;;;;;;;18.51;68.36;100064.64;21382638;80;100223;-83
2021/08/27 16:34:53;;;;;;;5.03;3.33;;;;;;;18.12;68.54;100075.19;21380849;81;99370;-83
2021/08/27 17:04:54;;;;;;;5.12;2.98;;;;;;;17.67;70.44;100105.72;21544968;80;99434;-83
2021/08/27 17:34:56;;;;;;;7.33;4.43;;;;;;;16.90;73.51;100132.95;21634548;80;99651;-84
2021/08/27 18:04:58;;;;;;;6.97;3.97;;;;;;;16.64;74.35;100149.92;21583284;80;99531;-83
2021/08/27 18:35:01;;;;;;;7.58;4.78;;;;;;;16.06;77.83;100167.13;21572193;80;99259;-83
2021/08/27 19:05:01;;;;;;;8.67;5.57;;;;;;;15.50;80.31;100194.28;21589964;80;99471;-82
2021/08/27 19:35:03;;;;;;;15.05;7.83;;;;;;;15.00;81.84;100209.85;21597771;80;99474;-82
2021/08/27 20:05:06;;;;;;;7.43;5.10;;;;;;;14.39;83.14;100215.58;21608231;80;99655;-85
2021/08/27 20:35:07;;;;;;;8.63;5.40;;;;;;;13.63;84.11;100224.52;21599208;80;99159;-84
2021/08/27 21:05:09;;;;;;;13.43;8.08;;;;;;;13.15;85.86;100238.12;21603064;80;100238;-84
2021/08/27 21:35:10;;;;;;;11.30;7.80;;;;;;;12.81;87.08;100254.13;21597365;80;99577;-85
2021/08/27 22:05:11;;;;;;;13.85;6.28;;;;;;;12.51;87.74;100260.62;21494532;80;99756;-85
2021/08/27 22:35:12;;;;;;;11.60;7.37;;;;;;;12.21;88.57;100260.98;21399097;80;99846;-85
2021/08/27 23:05:12;;;;;;;10.63;6.28;;;;;;;11.82;88.49;100263.46;21390720;81;100056;-85
2021/08/27 23:35:13;;;;;;;8.13;4.77;;;;;;;11.48;89.56;100280.80;21403549;81;99873;-85
